Time;durP1;ratioP1;P1;durP2;ratioP2;P2;SDS_P1;SDS_P2;PMS_P1;PMS_P2;Temp;Humidity;BMP_temperature;BMP_pressure;BME280_temperature;BME280_humidity;BME280_pressure;Samples;Min_cycle;Max_cycle;Signal;HPM_P1;HPM_P2
2024/01/05 00:01:13;;;;;;;27.87;14.27;;;4.20;99.90;;;;;;4974841;28;20410;-64
2024/01/05 00:03:39;;;;;;;25.57;13.73;;;4.20;99.90;;;;;;4972122;28;20495;-64
2024/01/05 00:06:05;;;;;;;28.30;13.80;;;4.20;99.90;;;;;;4973714;28;20126;-64
2024/01/05 00:08:30;;;;;;;31.50;14.10;;;4.20;99.90;;;;;;4973665;28;20227;-64
2024/01/05 00:10:56;;;;;;;29.63;14.40;;;4.20;99.90;;;;;;4973167;28;20551;-64
2024/01/05 00:13:21;;;;;;;33.33;13.97;;;4.20;99.90;;;;;;4969667;28;20053;-64
2024/01/05 00:15:47;;;;;;;29.10;13.17;;;4.20;99.90;;;;;;4972765;28;20137;-64
2024/01/05 00:18:13;;;;;;;33.25;15.38;;;4.20;99.90;;;;;;4970587;28;20051;-64
2024/01/05 00:20:38;;;;;;;39.37;17.03;;;4.20;99.90;;;;;;4970296;28;20034;-64
2024/01/05 00:23:04;;;;;;;33.63;14.87;;;4.20;99.90;;;;;;4965889;28;20282;-66
2024/01/05 00:25:30;;;;;;;30.17;14.60;;;4.20;99.90;;;;;;4972069;28;20031;-67
2024/01/05 00:27:56;;;;;;;32.35;15.40;;;4.20;99.90;;;;;;4971348;28;20070;-66
2024/01/05 00:30:21;;;;;;;36.50;15.37;;;4.10;99.90;;;;;;4970553;28;20112;-67
2024/01/05 00:32:48;;;;;;;35.80;15.75;;;4.10;99.90;;;;;;4971914;28;20042;-67
2024/01/05 00:35:14;;;;;;;33.50;16.27;;;4.10;99.90;;;;;;4973020;28;20589;-68
2024/01/05 00:37:39;;;;;;;30.50;14.27;;;4.10;99.90;;;;;;4972125;28;20057;-67
2024/01/05 00:40:06;;;;;;;37.53;16.57;;;4.10;99.90;;;;;;4973023;28;20104;-67
2024/01/05 00:42:31;;;;;;;36.10;14.45;;;4.10;99.90;;;;;;4973253;28;20401;-67
2024/01/05 00:44:57;;;;;;;33.23;15.50;;;4.10;99.90;;;;;;4972581;28;20046;-65
2024/01/05 00:47:23;;;;;;;42.70;16.07;;;4.10;99.90;;;;;;4956007;28;20698;-65
2024/01/05 00:49:48;;;;;;;38.22;15.60;;;4.10;99.90;;;;;;4972526;28;20504;-65
2024/01/05 00:52:14;;;;;;;32.57;14.23;;;4.10;99.90;;;;;;4973112;28;20097;-65
2024/01/05 00:54:40;;;;;;;29.37;13.83;;;4.10;99.90;;;;;;4973069;28;20214;-65
2024/01/05 00:57:06;;;;;;;25.48;13.02;;;4.10;99.90;;;;;;4971215;28;20043;-65
2024/01/05 00:59:31;;;;;;;32.20;14.23;;;4.10;99.90;;;;;;4971171;28;20068;-65
2024/01/05 01:01:57;;;;;;;30.70;14.47;;;4.10;99.90;;;;;;4971254;28;20054;-65
2024/01/05 01:04:23;;;;;;;32.33;16.07;;;4.10;99.90;;;;;;4973095;28;20129;-65
2024/01/05 01:06:49;;;;;;;31.40;14.65;;;4.10;99.90;;;;;;4955448;28;20038;-65
2024/01/05 01:09:14;;;;;;;43.85;15.95;;;4.00;99.90;;;;;;4954788;28;20046;-65
2024/01/05 01:11:40;;;;;;;38.30;14.63;;;4.00;99.90;;;;;;4973030;28;20466;-65
2024/01/05 01:14:06;;;;;;;27.77;14.73;;;4.00;99.90;;;;;;4971039;28;20053;-65
2024/01/05 01:16:32;;;;;;;28.00;15.20;;;4.00;99.90;;;;;;4971801;28;20416;-65
2024/01/05 01:18:57;;;;;;;39.80;16.35;;;4.00;99.90;;;;;;4970823;28;20081;-65
2024/01/05 01:21:23;;;;;;;28.63;13.07;;;4.00;99.90;;;;;;4972493;28;20502;-65
2024/01/05 01:23:49;;;;;;;31.00;14.17;;;4.00;99.90;;;;;;4970531;28;20039;-65
2024/01/05 01:26:16;;;;;;;34.28;13.95;;;4.00;99.90;;;;;;4969930;28;20463;-65
2024/01/05 01:28:41;;;;;;;26.42;12.48;;;4.00;99.90;;;;;;4971770;28;20097;-65
2024/01/05 01:31:07;;;;;;;26.53;13.20;;;4.00;99.90;;;;;;4972234;28;20046;-65
2024/01/05 01:33:32;;;;;;;25.23;12.13;;;3.90;99.90;;;;;;4972343;28;20041;-65
2024/01/05 01:35:58;;;;;;;21.63;11.80;;;4.00;99.90;;;;;;4970166;28;20046;-65
2024/01/05 01:38:23;;;;;;;29.27;12.53;;;3.90;99.90;;;;;;4968914;28;20617;-65
2024/01/05 01:40:49;;;;;;;31.90;13.33;;;3.90;99.90;;;;;;4971816;28;20039;-65
2024/01/05 01:43:22;;;;;;;31.23;14.93;;;3.90;99.90;;;;;;4970252;28;20038;-65
2024/01/05 01:45:48;;;;;;;27.90;12.93;;;4.00;99.90;;;;;;4971716;28;20121;-64
2024/01/05 01:48:17;;;;;;;30.55;13.38;;;3.90;99.90;;;;;;4971566;28;20523;-65
2024/01/05 01:50:43;;;;;;;25.55;12.20;;;3.90;99.90;;;;;;4970819;28;20515;-65
2024/01/05 01:53:11;;;;;;;26.17;12.20;;;3.90;99.90;;;;;;4972149;28;20043;-65
2024/01/05 01:55:36;;;;;;;27.65;13.70;;;3.90;99.90;;;;;;4968760;28;20571;-65
2024/01/05 01:58:03;;;;;;;29.17;13.85;;;3.90;99.90;;;;;;4970544;28;20125;-65
2024/01/05 02:00:30;;;;;;;27.27;12.38;;;3.90;99.90;;;;;;4966233;28;20043;-65
2024/01/05 02:02:56;;;;;;;24.35;11.55;;;3.90;99.90;;;;;;4972684;28;20038;-65
2024/01/05 02:05:21;;;;;;;24.77;12.02;;;3.90;99.90;;;;;;4970595;28;20096;-65
2024/01/05 02:07:47;;;;;;;24.77;12.27;;;4.00;99.90;;;;;;4971209;28;20117;-65
2024/01/05 02:10:13;;;;;;;24.65;12.88;;;4.00;99.90;;;;;;4967429;28;20062;-65
2024/01/05 02:12:38;;;;;;;25.00;12.50;;;4.00;99.90;;;;;;4971210;28;20043;-65
2024/01/05 02:15:05;;;;;;;28.00;13.93;;;4.00;99.90;;;;;;4969562;28;20053;-65
2024/01/05 02:17:34;;;;;;;27.45;13.93;;;4.00;99.90;;;;;;4971868;28;20381;-65
2024/01/05 02:20:00;;;;;;;28.23;15.85;;;4.00;99.90;;;;;;4969136;28;20365;-64
2024/01/05 02:22:30;;;;;;;24.73;12.80;;;4.00;99.90;;;;;;4970954;28;20035;-64
2024/01/05 02:24:59;;;;;;;28.77;14.45;;;4.00;99.90;;;;;;4968778;28;20049;-64
2024/01/05 02:27:25;;;;;;;29.65;14.75;;;4.00;99.90;;;;;;4969674;28;20452;-64
2024/01/05 02:29:51;;;;;;;29.25;15.20;;;4.00;99.90;;;;;;4970352;28;20042;-65
2024/01/05 02:32:17;;;;;;;29.27;14.75;;;4.00;99.90;;;;;;4965009;28;20039;-64
2024/01/05 02:34:43;;;;;;;25.80;15.35;;;4.00;99.90;;;;;;4966793;28;20455;-64
2024/01/05 02:37:09;;;;;;;28.42;14.63;;;4.00;99.90;;;;;;4968895;28;20046;-64
2024/01/05 02:39:35;;;;;;;32.13;15.35;;;4.00;99.90;;;;;;4969577;28;20047;-64
2024/01/05 02:42:00;;;;;;;32.73;15.23;;;4.00;99.90;;;;;;4969521;28;20567;-64
2024/01/05 02:44:26;;;;;;;26.30;14.13;;;4.10;99.90;;;;;;4969063;28;20110;-64
2024/01/05 02:46:51;;;;;;;30.27;15.20;;;4.00;99.90;;;;;;4970444;28;20050;-64
2024/01/05 02:49:17;;;;;;;34.17;16.00;;;4.10;99.90;;;;;;4969870;28;20039;-64
2024/01/05 02:51:43;;;;;;;32.17;15.23;;;4.10;99.90;;;;;;4970441;28;20503;-64
2024/01/05 02:54:09;;;;;;;29.75;15.75;;;4.10;99.90;;;;;;4969638;28;20082;-64
2024/01/05 02:56:34;;;;;;;29.38;15.20;;;4.10;99.90;;;;;;4968096;28;20056;-64
2024/01/05 02:59:01;;;;;;;31.10;15.90;;;4.00;99.90;;;;;;4968541;28;20046;-64
2024/01/05 03:01:26;;;;;;;;;;;4.10;99.90;;;;;;4969829;28;20081;-64
2024/01/05 03:03:52;;;;;;;27.05;14.73;;;4.10;99.90;;;;;;4969073;28;19921;-64
2024/01/05 03:06:19;;;;;;;26.52;14.15;;;4.10;99.90;;;;;;4965237;28;20420;-64
2024/01/05 03:08:45;;;;;;;25.70;13.60;;;4.10;99.90;;;;;;4968292;28;20089;-64
2024/01/05 03:11:12;;;;;;;25.60;14.60;;;4.10;99.90;;;;;;4969954;28;20047;-64
2024/01/05 03:13:37;;;;;;;27.75;13.90;;;4.10;99.90;;;;;;4967159;28;20066;-64
2024/01/05 03:16:04;;;;;;;30.73;14.32;;;4.10;99.90;;;;;;4967273;28;20058;-64
2024/01/05 03:18:30;;;;;;;30.42;14.02;;;4.10;99.90;;;;;;4967484;28;20506;-64
2024/01/05 03:20:56;;;;;;;30.15;14.68;;;4.10;99.90;;;;;;4970463;28;20126;-64
2024/01/05 03:23:21;;;;;;;28.73;15.30;;;4.10;99.90;;;;;;4966380;28;20039;-64
2024/01/05 03:25:48;;;;;;;30.93;14.60;;;4.10;99.90;;;;;;4969941;28;20455;-64
2024/01/05 03:28:14;;;;;;;30.92;15.10;;;4.10;99.90;;;;;;4967349;28;20062;-64
2024/01/05 03:30:41;;;;;;;26.55;15.85;;;4.20;99.90;;;;;;4968760;28;20347;-64
2024/01/05 03:33:06;;;;;;;25.77;14.55;;;4.20;99.90;;;;;;4968490;28;20126;-65
2024/01/05 03:35:32;;;;;;;30.07;15.90;;;4.20;99.90;;;;;;4969971;28;20555;-64
2024/01/05 03:37:58;;;;;;;29.97;15.73;;;4.20;99.90;;;;;;4969225;28;20351;-64
2024/01/05 03:40:23;;;;;;;31.92;17.48;;;4.20;99.90;;;;;;4969634;28;20098;-64
2024/01/05 03:42:49;;;;;;;24.95;15.80;;;4.20;99.90;;;;;;4967126;28;20049;-64
2024/01/05 03:45:15;;;;;;;33.07;16.20;;;4.20;99.90;;;;;;4969478;28;20031;-64
2024/01/05 03:47:40;;;;;;;26.47;15.47;;;4.20;99.90;;;;;;4969372;28;20038;-64
2024/01/05 03:50:07;;;;;;;27.53;15.87;;;4.30;99.90;;;;;;4968300;28;20047;-64
2024/01/05 03:52:32;;;;;;;;;;;4.20;99.90;;;;;;4969636;28;20039;-64
2024/01/05 03:54:58;;;;;;;27.85;15.20;;;4.20;99.90;;;;;;4969501;28;20346;-64
2024/01/05 03:57:24;;;;;;;25.00;14.77;;;4.20;99.90;;;;;;4969041;28;20047;-64
2024/01/05 03:59:50;;;;;;;24.80;14.80;;;4.20;99.90;;;;;;4965858;28;20125;-66
2024/01/05 04:02:16;;;;;;;25.30;14.63;;;4.20;99.90;;;;;;4967750;28;20039;-66
2024/01/05 04:04:42;;;;;;;23.35;14.32;;;4.20;99.90;;;;;;4968304;28;20046;-66
2024/01/05 04:07:07;;;;;;;26.08;15.50;;;4.20;99.90;;;;;;4969488;28;20046;-66
2024/01/05 04:09:33;;;;;;;27.45;15.20;;;4.30;99.90;;;;;;4968794;28;20508;-66
2024/01/05 04:11:59;;;;;;;28.33;14.23;;;4.30;99.90;;;;;;4969152;28;20054;-66
2024/01/05 04:14:25;;;;;;;26.57;14.43;;;4.30;99.90;;;;;;4965541;28;20511;-66
2024/01/05 04:16:51;;;;;;;25.27;15.63;;;4.30;99.90;;;;;;4969879;28;20361;-66
2024/01/05 04:19:16;;;;;;;24.98;14.32;;;4.30;99.90;;;;;;4969131;28;20082;-64
2024/01/05 04:21:42;;;;;;;35.23;17.43;;;4.30;99.90;;;;;;4967056;28;20423;-64
2024/01/05 04:24:09;;;;;;;28.77;16.25;;;4.30;99.90;;;;;;4969352;28;20058;-64
2024/01/05 04:26:35;;;;;;;25.92;16.75;;;4.30;99.90;;;;;;4969625;28;20415;-64
2024/01/05 04:29:01;;;;;;;28.02;16.30;;;4.30;99.90;;;;;;4970025;28;20070;-65
2024/01/05 04:31:27;;;;;;;29.67;17.48;;;4.30;99.90;;;;;;4973873;28;20039;-65
2024/01/05 04:33:54;;;;;;;25.67;15.60;;;4.30;99.90;;;;;;4967568;28;20492;-65
2024/01/05 04:36:20;;;;;;;28.20;18.15;;;4.40;99.90;;;;;;4968835;28;20050;-64
2024/01/05 04:38:45;;;;;;;28.80;16.80;;;4.40;99.90;;;;;;4971496;28;20089;-65
2024/01/05 04:41:14;;;;;;;32.30;18.87;;;4.30;99.90;;;;;;4972381;28;20038;-65
2024/01/05 04:43:39;;;;;;;34.50;19.58;;;4.30;99.90;;;;;;4971808;28;20445;-65
2024/01/05 04:46:07;;;;;;;26.90;17.80;;;4.30;99.90;;;;;;4967406;28;20085;-64
2024/01/05 04:48:32;;;;;;;30.02;18.27;;;4.30;99.90;;;;;;4973083;28;20388;-65
2024/01/05 04:50:58;;;;;;;32.10;19.83;;;4.40;99.90;;;;;;4966211;28;20122;-64
2024/01/05 04:53:23;;;;;;;27.90;18.40;;;4.30;99.90;;;;;;4971405;28;20158;-64
2024/01/05 04:55:49;;;;;;;30.37;17.30;;;4.40;99.90;;;;;;4966328;28;20118;-65
2024/01/05 04:58:15;;;;;;;26.80;17.20;;;4.30;99.90;;;;;;4971085;28;20039;-64
2024/01/05 05:00:40;;;;;;;26.57;17.30;;;4.40;99.90;;;;;;4969580;28;20047;-64
2024/01/05 05:03:06;;;;;;;32.37;17.50;;;4.40;99.90;;;;;;4971854;28;20051;-65
2024/01/05 05:05:31;;;;;;;32.47;19.33;;;4.40;99.90;;;;;;4971738;28;20419;-64
2024/01/05 05:07:57;;;;;;;33.47;19.43;;;4.40;99.90;;;;;;4972530;28;20082;-65
2024/01/05 05:10:23;;;;;;;34.15;17.25;;;4.40;99.90;;;;;;4972095;28;20447;-64
2024/01/05 05:12:49;;;;;;;35.20;18.90;;;4.40;99.90;;;;;;4971325;28;20043;-65
2024/01/05 05:15:14;;;;;;;28.25;17.58;;;4.40;99.90;;;;;;4970598;28;20524;-65
2024/01/05 05:17:40;;;;;;;31.10;18.50;;;4.50;99.90;;;;;;4968917;28;20097;-65
2024/01/05 05:20:06;;;;;;;31.27;18.80;;;4.50;99.90;;;;;;4969837;28;20492;-65
2024/01/05 05:22:33;;;;;;;30.58;18.42;;;4.50;99.90;;;;;;4971362;28;20034;-65
2024/01/05 05:24:58;;;;;;;;;;;4.50;99.90;;;;;;4972042;28;20043;-65
2024/01/05 05:27:24;;;;;;;32.72;19.38;;;4.50;99.90;;;;;;4971899;28;20457;-65
2024/01/05 05:29:49;;;;;;;30.07;18.90;;;4.50;99.90;;;;;;4969806;28;20045;-64
2024/01/05 05:32:15;;;;;;;38.83;21.00;;;4.60;99.90;;;;;;4971698;28;20274;-65
2024/01/05 05:34:41;;;;;;;29.87;20.57;;;4.60;99.90;;;;;;4970765;28;20093;-65
2024/01/05 05:37:07;;;;;;;32.15;19.75;;;4.60;99.90;;;;;;4971346;28;20045;-65
2024/01/05 05:39:33;;;;;;;33.80;20.38;;;4.60;99.90;;;;;;4971650;28;20042;-64
2024/01/05 05:41:58;;;;;;;29.07;17.47;;;4.60;99.90;;;;;;4970420;28;20042;-65
2024/01/05 05:44:24;;;;;;;39.07;21.13;;;4.60;99.90;;;;;;4950157;28;20365;-64
2024/01/05 05:46:50;;;;;;;39.50;20.77;;;4.60;99.90;;;;;;4969470;28;20042;-65
2024/01/05 05:49:15;;;;;;;32.17;21.27;;;4.60;99.90;;;;;;4966995;28;20035;-65
2024/01/05 05:51:41;;;;;;;36.40;20.90;;;4.60;99.90;;;;;;4968258;28;20047;-65
2024/01/05 05:54:06;;;;;;;35.97;20.67;;;4.70;99.90;;;;;;4968933;28;20050;-65
2024/01/05 05:56:32;;;;;;;35.80;21.77;;;4.70;99.90;;;;;;4954596;28;20047;-64
2024/01/05 05:58:58;;;;;;;36.90;22.97;;;4.70;99.90;;;;;;4970659;28;20046;-64
2024/01/05 06:01:24;;;;;;;39.60;22.73;;;4.70;99.90;;;;;;4954190;28;20411;-64
2024/01/05 06:03:50;;;;;;;;;;;4.70;99.90;;;;;;4970171;28;20286;-65
2024/01/05 06:06:19;;;;;;;40.38;21.45;;;4.70;99.90;;;;;;4971575;28;20403;-64
2024/01/05 06:08:44;;;;;;;37.83;22.95;;;4.70;99.90;;;;;;4967412;28;20455;-64
2024/01/05 06:11:13;;;;;;;39.97;22.30;;;4.70;99.90;;;;;;4970159;28;20121;-64
2024/01/05 06:13:39;;;;;;;43.42;24.60;;;4.80;99.90;;;;;;4969433;28;20047;-65
2024/01/05 06:16:05;;;;;;;43.90;24.73;;;4.80;99.90;;;;;;4968340;28;20093;-64
2024/01/05 06:18:30;;;;;;;38.03;23.80;;;4.80;99.90;;;;;;4969005;28;20392;-65
2024/01/05 06:20:56;;;;;;;44.07;22.40;;;4.90;99.90;;;;;;4968136;28;20170;-64
2024/01/05 06:23:21;;;;;;;43.83;21.50;;;4.90;99.90;;;;;;4971012;28;20496;-64
2024/01/05 06:25:47;;;;;;;43.87;23.73;;;4.90;99.90;;;;;;4953678;28;20046;-64
2024/01/05 06:28:13;;;;;;;46.63;23.73;;;4.90;99.90;;;;;;4970127;28;20057;-64
2024/01/05 06:30:38;;;;;;;46.95;24.63;;;4.90;99.90;;;;;;4968009;28;20054;-64
2024/01/05 06:33:06;;;;;;;41.40;24.47;;;4.90;99.90;;;;;;4970467;28;20045;-64
2024/01/05 06:35:32;;;;;;;45.50;25.70;;;5.00;99.90;;;;;;4970576;28;20266;-64
2024/01/05 06:37:57;;;;;;;43.20;23.13;;;5.00;99.90;;;;;;4966148;28;20550;-64
2024/01/05 06:40:23;;;;;;;47.87;26.10;;;5.00;99.90;;;;;;4969754;28;20281;-64
2024/01/05 06:42:49;;;;;;;49.10;24.83;;;5.00;99.90;;;;;;4968024;28;20043;-64
2024/01/05 06:45:15;;;;;;;49.25;25.80;;;5.00;99.90;;;;;;4966063;28;20051;-64
2024/01/05 06:47:41;;;;;;;45.45;24.42;;;5.00;99.90;;;;;;4967041;28;20122;-65
2024/01/05 06:50:07;;;;;;;41.83;26.70;;;5.00;99.90;;;;;;4970236;28;20211;-64
2024/01/05 06:52:33;;;;;;;49.75;26.10;;;5.00;99.90;;;;;;4970431;28;20095;-64
2024/01/05 06:54:59;;;;;;;45.90;26.73;;;5.00;99.90;;;;;;4968318;28;20511;-65
2024/01/05 06:57:25;;;;;;;42.42;26.35;;;5.00;99.90;;;;;;4961968;28;20404;-64
2024/01/05 06:59:51;;;;;;;50.83;27.60;;;5.10;99.90;;;;;;4962284;28;20054;-64
2024/01/05 07:02:17;;;;;;;44.60;26.00;;;5.10;99.90;;;;;;4966825;28;20037;-66
2024/01/05 07:04:43;;;;;;;58.03;25.95;;;5.10;99.90;;;;;;4968546;28;20249;-66
2024/01/05 07:07:08;;;;;;;55.33;28.77;;;5.10;99.90;;;;;;4970969;28;20134;-66
2024/01/05 07:09:34;;;;;;;46.70;24.23;;;5.10;99.90;;;;;;4970102;28;20046;-67
2024/01/05 07:12:00;;;;;;;47.57;26.30;;;5.10;99.90;;;;;;4969221;28;20031;-67
2024/01/05 07:14:28;;;;;;;54.20;26.73;;;5.20;99.90;;;;;;4967947;28;20411;-66
2024/01/05 07:16:58;;;;;;;50.60;27.63;;;5.20;99.90;;;;;;4966925;28;20043;-67
2024/01/05 07:19:24;;;;;;;49.42;26.88;;;5.20;99.90;;;;;;4966383;28;20050;-67
2024/01/05 07:21:50;;;;;;;45.33;25.77;;;5.20;99.90;;;;;;4964534;28;20035;-67
2024/01/05 07:24:16;;;;;;;46.40;28.27;;;5.30;99.90;;;;;;4967245;28;20035;-67
2024/01/05 07:26:42;;;;;;;41.75;25.77;;;5.30;99.90;;;;;;4965688;28;20035;-67
2024/01/05 07:29:08;;;;;;;;;;;5.30;99.90;;;;;;4970195;28;20057;-67
2024/01/05 07:31:34;;;;;;;51.67;25.15;;;5.30;99.90;;;;;;4967961;28;19925;-67
2024/01/05 07:34:00;;;;;;;49.55;27.67;;;5.30;99.90;;;;;;4960624;28;20133;-65
2024/01/05 07:36:26;;;;;;;51.05;24.05;;;5.30;99.90;;;;;;4969549;28;20119;-65
2024/01/05 07:38:51;;;;;;;42.80;22.30;;;5.40;99.90;;;;;;4966437;28;20045;-65
2024/01/05 07:41:18;;;;;;;44.80;24.90;;;5.40;99.90;;;;;;4967858;28;20133;-65
2024/01/05 07:43:44;;;;;;;46.67;25.13;;;5.40;99.90;;;;;;4969109;28;20035;-65
2024/01/05 07:46:10;;;;;;;45.40;25.33;;;5.40;99.90;;;;;;4968776;28;20039;-65
2024/01/05 07:48:39;;;;;;;52.47;26.65;;;5.40;99.90;;;;;;4968156;28;20078;-65
2024/01/05 07:51:05;;;;;;;48.33;23.77;;;5.40;99.90;;;;;;4966851;28;20046;-65
2024/01/05 07:53:30;;;;;;;54.50;24.80;;;5.50;99.90;;;;;;4968013;28;20050;-65
2024/01/05 07:55:59;;;;;;;42.30;23.10;;;5.50;99.90;;;;;;4967034;28;20031;-65
2024/01/05 07:58:25;;;;;;;45.38;23.75;;;5.50;99.90;;;;;;4969471;28;20090;-65
2024/01/05 08:00:50;;;;;;;44.73;22.17;;;5.50;99.90;;;;;;4966581;28;20553;-66
2024/01/05 08:03:16;;;;;;;42.17;21.57;;;5.60;99.90;;;;;;4969676;28;20041;-65
2024/01/05 08:05:42;;;;;;;42.80;20.93;;;5.60;99.90;;;;;;4966854;28;20066;-65
2024/01/05 08:08:07;;;;;;;39.57;20.20;;;5.70;99.90;;;;;;4968523;28;20050;-65
2024/01/05 08:10:33;;;;;;;42.03;21.33;;;5.70;99.90;;;;;;4967925;28;20039;-65
2024/01/05 08:13:01;;;;;;;36.00;20.57;;;5.70;99.90;;;;;;4971474;28;20447;-65
2024/01/05 08:15:27;;;;;;;39.33;20.50;;;5.70;99.90;;;;;;4970253;28;20082;-65
2024/01/05 08:17:54;;;;;;;39.35;19.75;;;5.70;99.90;;;;;;4972645;28;20460;-64
2024/01/05 08:20:20;;;;;;;39.15;20.88;;;5.80;99.90;;;;;;4972359;28;20031;-64
2024/01/05 08:22:45;;;;;;;49.38;22.13;;;5.80;99.90;;;;;;4970576;28;20031;-64
2024/01/05 08:25:16;;;;;;;35.28;19.48;;;5.90;99.90;;;;;;4963870;28;20026;-64
2024/01/05 08:27:42;;;;;;;35.83;18.30;;;5.90;99.90;;;;;;4970897;28;20070;-64
2024/01/05 08:30:12;;;;;;;30.75;16.88;;;5.90;99.90;;;;;;4976924;28;20129;-64
2024/01/05 08:32:38;;;;;;;39.40;16.25;;;6.00;99.90;;;;;;4974504;28;20503;-64
2024/01/05 08:35:07;;;;;;;39.40;15.70;;;6.00;99.90;;;;;;4973399;28;20125;-64
2024/01/05 08:37:34;;;;;;;32.10;15.38;;;6.10;99.90;;;;;;4972978;28;20122;-64
2024/01/05 08:40:01;;;;;;;32.38;15.25;;;6.10;99.90;;;;;;4970855;28;20416;-64
2024/01/05 08:42:26;;;;;;;32.28;15.93;;;6.20;99.90;;;;;;4973099;28;20034;-65
2024/01/05 08:44:52;;;;;;;31.67;13.13;;;6.30;99.90;;;;;;4972852;28;20389;-64
2024/01/05 08:47:18;;;;;;;25.83;14.90;;;6.30;99.90;;;;;;4965966;28;20035;-67
2024/01/05 08:49:43;;;;;;;29.40;14.23;;;6.30;99.90;;;;;;4954041;28;20134;-65
2024/01/05 08:52:09;;;;;;;28.02;12.30;;;6.40;99.90;;;;;;4971726;28;20038;-65
2024/01/05 08:54:35;;;;;;;28.87;12.57;;;6.50;99.90;;;;;;4972087;28;20768;-65
2024/01/05 08:57:00;;;;;;;26.47;10.97;;;6.50;99.90;;;;;;4968984;28;20125;-64
2024/01/05 08:59:26;;;;;;;28.33;12.17;;;6.60;99.90;;;;;;4967481;28;20039;-66
2024/01/05 09:01:51;;;;;;;25.70;11.80;;;6.60;99.90;;;;;;4969961;28;20042;-64
2024/01/05 09:04:17;;;;;;;23.47;11.60;;;6.60;99.90;;;;;;4969641;28;20873;-65
2024/01/05 09:06:44;;;;;;;25.10;10.98;;;6.60;99.90;;;;;;4971880;28;20042;-65
2024/01/05 09:09:10;;;;;;;18.77;9.23;;;6.60;99.90;;;;;;4946449;28;20039;-64
2024/01/05 09:11:36;;;;;;;15.57;9.18;;;6.70;99.90;;;;;;4965404;28;20065;-64
2024/01/05 09:14:02;;;;;;;24.13;8.70;;;6.70;99.90;;;;;;4970932;28;20043;-65
2024/01/05 09:16:27;;;;;;;23.27;9.83;;;6.70;99.90;;;;;;4968819;28;20424;-65
2024/01/05 09:18:53;;;;;;;19.93;10.30;;;6.70;99.90;;;;;;4966532;28;20337;-65
2024/01/05 09:21:19;;;;;;;22.37;9.20;;;6.70;99.90;;;;;;4969257;28;20038;-64
2024/01/05 09:23:44;;;;;;;23.37;10.37;;;6.80;99.90;;;;;;4969757;28;20074;-65
2024/01/05 09:26:14;;;;;;;15.13;8.37;;;6.80;99.90;;;;;;4968656;28;20051;-64
2024/01/05 09:28:40;;;;;;;15.90;7.68;;;6.80;99.90;;;;;;4974940;28;20298;-63
2024/01/05 09:31:05;;;;;;;14.87;7.00;;;6.80;99.90;;;;;;4972957;28;20761;-65
2024/01/05 09:33:31;;;;;;;23.67;8.60;;;6.90;99.90;;;;;;4968511;28;20051;-65
2024/01/05 09:35:56;;;;;;;16.57;7.03;;;6.90;99.90;;;;;;4970269;28;20042;-66
2024/01/05 09:38:22;;;;;;;18.40;7.50;;;6.90;99.90;;;;;;4968420;28;20473;-66
2024/01/05 09:40:52;;;;;;;17.77;6.33;;;6.90;99.90;;;;;;4969853;28;20038;-66
2024/01/05 09:43:21;;;;;;;13.82;5.88;;;6.90;99.90;;;;;;4970278;28;20046;-66
2024/01/05 09:45:49;;;;;;;10.80;5.72;;;6.90;99.90;;;;;;4970693;28;20503;-66
2024/01/05 09:48:20;;;;;;;9.18;4.25;;;7.00;99.90;;;;;;4962565;28;20062;-66
2024/01/05 09:50:55;;;;;;;18.00;5.20;;;7.10;99.90;;;;;;4969728;28;20042;-66
2024/01/05 09:53:20;;;;;;;14.50;5.28;;;7.10;99.90;;;;;;4969813;28;20046;-67
2024/01/05 09:55:50;;;;;;;10.35;3.45;;;7.10;99.90;;;;;;4970118;28;20454;-66
2024/01/05 09:58:17;;;;;;;10.13;2.25;;;7.10;99.90;;;;;;4966601;28;20307;-66
2024/01/05 10:00:50;;;;;;;6.40;2.13;;;7.20;99.90;;;;;;4968851;28;20062;-66
2024/01/05 10:03:20;;;;;;;8.07;2.50;;;7.20;99.90;;;;;;4967835;28;20069;-66
2024/01/05 10:05:50;;;;;;;4.30;1.88;;;7.30;99.90;;;;;;4970147;28;20117;-66
2024/01/05 10:08:15;;;;;;;5.15;1.73;;;7.30;99.90;;;;;;4951956;28;20058;-66
2024/01/05 10:10:49;;;;;;;7.00;2.40;;;7.30;99.90;;;;;;4968175;28;20046;-65
2024/01/05 10:13:17;;;;;;;5.07;1.95;;;7.30;99.90;;;;;;4969389;28;20662;-66
2024/01/05 10:16:02;;;;;;;8.93;1.67;;;7.30;99.90;;;;;;4968993;28;20050;-66
2024/01/05 10:18:29;;;;;;;8.90;2.00;;;7.30;99.90;;;;;;4968010;28;20476;-65
2024/01/05 10:20:57;;;;;;;;;;;7.30;99.90;;;;;;4968353;28;20562;-66
2024/01/05 10:23:24;;;;;;;6.63;2.00;;;7.40;99.90;;;;;;4967511;28;19928;-66
2024/01/05 10:25:51;;;;;;;5.15;1.00;;;7.40;99.90;;;;;;4967717;28;20070;-66
2024/01/05 10:28:24;;;;;;;7.28;1.00;;;7.40;99.90;;;;;;4966442;28;20101;-65
2024/01/05 10:30:49;;;;;;;15.25;1.63;;;7.40;99.90;;;;;;4963260;28;20063;-66
2024/01/05 10:33:16;;;;;;;3.73;0.67;;;7.40;99.90;;;;;;4964202;28;20507;-67
2024/01/05 10:35:42;;;;;;;1.73;0.50;;;7.50;99.90;;;;;;4965057;28;20081;-65
2024/01/05 10:38:10;;;;;;;4.20;2.30;;;7.50;99.90;;;;;;4967973;28;20047;-64
2024/01/05 10:40:36;;;;;;;4.55;1.30;;;7.50;99.90;;;;;;4969701;28;20114;-65
2024/01/05 10:43:13;;;;;;;3.83;1.30;;;7.50;99.90;;;;;;4967953;28;20038;-66
2024/01/05 10:45:40;;;;;;;4.78;0.70;;;7.60;99.90;;;;;;4968237;28;20079;-67
2024/01/05 10:48:11;;;;;;;1.85;0.50;;;7.50;99.90;;;;;;4968992;28;20414;-67
2024/01/05 10:50:37;;;;;;;1.48;0.30;;;7.60;99.90;;;;;;4968548;28;20090;-66
2024/01/05 10:53:08;;;;;;;7.05;0.88;;;7.60;99.90;;;;;;4968212;28;20070;-67
2024/01/05 10:55:35;;;;;;;2.05;0.57;;;7.60;99.90;;;;;;4942582;28;20093;-66
2024/01/05 10:58:01;;;;;;;0.95;0.50;;;7.60;99.90;;;;;;4968703;28;20130;-66
2024/01/05 11:00:27;;;;;;;0.70;0.30;;;7.60;99.90;;;;;;4967724;28;20578;-66
2024/01/05 11:03:01;;;;;;;3.75;0.30;;;7.50;99.90;;;;;;4946085;28;20118;-66
2024/01/05 11:05:28;;;;;;;2.25;0.30;;;7.60;99.90;;;;;;4969630;28;20122;-66
2024/01/05 11:07:55;;;;;;;1.98;0.32;;;7.60;99.90;;;;;;4968586;28;20419;-67
2024/01/05 11:10:51;;;;;;;0.95;0.30;;;7.60;99.90;;;;;;4967117;28;20534;-66
2024/01/05 11:13:51;;;;;;;1.35;0.30;;;7.60;99.90;;;;;;4968536;28;20054;-67
2024/01/05 11:16:38;;;;;;;0.35;0.20;;;7.60;99.90;;;;;;4965803;28;20515;-66
2024/01/05 11:19:15;;;;;;;0.47;0.20;;;7.60;99.90;;;;;;4966984;28;20419;-67
2024/01/05 11:22:03;;;;;;;1.52;0.30;;;7.60;99.90;;;;;;4951153;28;20113;-66
2024/01/05 11:24:31;;;;;;;0.20;0.10;;;7.60;99.90;;;;;;4967068;28;20731;-66
2024/01/05 11:26:56;;;;;;;1.02;0.20;;;7.50;99.90;;;;;;4967938;28;20086;-66
2024/01/05 11:29:56;;;;;;;2.30;0.40;;;7.50;99.90;;;;;;4966290;28;20504;-67
2024/01/05 11:32:46;;;;;;;0.73;0.20;;;7.50;99.90;;;;;;4942398;28;20455;-66
2024/01/05 11:35:24;;;;;;;1.30;0.30;;;7.40;99.90;;;;;;4967569;28;20559;-66
2024/01/05 11:37:51;;;;;;;1.60;0.20;;;7.40;99.90;;;;;;4949656;28;20047;-67
2024/01/05 11:40:25;;;;;;;1.27;0.20;;;7.40;99.90;;;;;;4965076;28;20066;-67
2024/01/05 11:42:52;;;;;;;0.40;0.20;;;7.30;99.90;;;;;;4967314;28;20043;-66
2024/01/05 11:45:43;;;;;;;0.20;0.20;;;7.30;99.90;;;;;;4968190;28;20267;-66
2024/01/05 11:48:09;;;;;;;0.60;0.22;;;7.30;99.90;;;;;;4970039;28;20138;-67
2024/01/05 11:50:36;;;;;;;1.23;0.30;;;7.30;99.90;;;;;;4956657;28;20170;-67
2024/01/05 11:53:19;;;;;;;0.73;0.20;;;7.20;99.90;;;;;;4967676;28;20050;-66
2024/01/05 11:55:46;;;;;;;0.95;0.40;;;7.20;99.90;;;;;;4966846;28;20058;-66
2024/01/05 11:58:16;;;;;;;4.00;0.65;;;7.20;99.90;;;;;;4965614;28;20113;-66
2024/01/05 12:00:44;;;;;;;1.45;0.45;;;7.20;99.90;;;;;;4956097;28;20050;-66
2024/01/05 12:03:10;;;;;;;0.80;0.20;;;7.10;99.90;;;;;;4962971;28;20404;-66
2024/01/05 12:05:39;;;;;;;1.45;0.22;;;7.10;99.90;;;;;;4971256;28;20042;-65
2024/01/05 12:08:08;;;;;;;1.33;0.40;;;7.10;99.90;;;;;;4972755;28;20128;-66
2024/01/05 12:10:34;;;;;;;2.05;0.50;;;7.10;99.90;;;;;;4972130;28;20039;-66
2024/01/05 12:13:00;;;;;;;0.65;0.20;;;7.00;99.90;;;;;;4972132;28;20565;-66
2024/01/05 12:15:27;;;;;;;0.65;0.30;;;7.00;99.90;;;;;;4971704;28;20047;-66
2024/01/05 12:18:09;;;;;;;1.38;0.40;;;7.00;99.90;;;;;;4971234;28;20109;-65
2024/01/05 12:20:37;;;;;;;0.80;0.30;;;7.00;99.90;;;;;;4965901;28;20134;-65
2024/01/05 12:23:03;;;;;;;1.83;0.45;;;6.90;99.90;;;;;;4964759;28;20034;-65
2024/01/05 12:25:30;;;;;;;1.45;0.30;;;6.90;99.90;;;;;;4972320;28;20031;-66
2024/01/05 12:27:57;;;;;;;0.70;0.43;;;7.00;99.90;;;;;;4968439;28;20039;-65
2024/01/05 12:30:23;;;;;;;0.50;0.30;;;7.00;99.90;;;;;;4969901;28;20507;-66
2024/01/05 12:32:49;;;;;;;0.90;0.60;;;7.00;99.90;;;;;;4970652;28;20050;-66
2024/01/05 12:35:15;;;;;;;1.73;0.30;;;6.90;99.90;;;;;;4969830;28;20181;-66
2024/01/05 12:37:54;;;;;;;;;;;6.90;99.90;;;;;;4971186;28;20038;-66
2024/01/05 12:40:23;;;;;;;;;;;6.90;99.90;;;;;;4971177;28;19961;-66
2024/01/05 12:42:50;;;;;;;0.68;0.45;;;6.80;99.90;;;;;;4968086;28;19972;-66